Map

Track Data

SID SEASON NUMBER BASIN SUBBASIN NAME ISO_TIME NATURE LAT LON WMO_WIND WMO_PRES WMO_AGENCY TRACK_TYPE DIST2LAND LANDFALL IFLAG USA_AGENCY USA_ATCF_ID USA_LAT USA_LON USA_RECORD USA_STATUS USA_WIND USA_PRES USA_SSHS USA_R34_NE USA_R34_SE USA_R34_SW USA_R34_NW USA_R50_NE USA_R50_SE USA_R50_SW USA_R50_NW USA_R64_NE USA_R64_SE USA_R64_SW USA_R64_NW USA_POCI USA_ROCI USA_RMW USA_EYE TOKYO_LAT TOKYO_LON TOKYO_GRADE TOKYO_WIND TOKYO_PRES TOKYO_R50_DIR TOKYO_R50_LONG TOKYO_R50_SHORT TOKYO_R30_DIR TOKYO_R30_LONG TOKYO_R30_SHORT TOKYO_LAND CMA_LAT CMA_LON CMA_CAT CMA_WIND CMA_PRES HKO_LAT HKO_LON HKO_CAT HKO_WIND HKO_PRES NEWDELHI_LAT NEWDELHI_LON NEWDELHI_GRADE NEWDELHI_WIND NEWDELHI_PRES NEWDELHI_CI NEWDELHI_DP NEWDELHI_POCI REUNION_LAT REUNION_LON REUNION_TYPE REUNION_WIND REUNION_PRES REUNION_TNUM REUNION_CI REUNION_RMW REUNION_R34_NE REUNION_R34_SE REUNION_R34_SW REUNION_R34_NW REUNION_R50_NE REUNION_R50_SE REUNION_R50_SW REUNION_R50_NW REUNION_R64_NE REUNION_R64_SE REUNION_R64_SW REUNION_R64_NW BOM_LAT BOM_LON BOM_TYPE BOM_WIND BOM_PRES BOM_TNUM BOM_CI BOM_RMW BOM_R34_NE BOM_R34_SE BOM_R34_SW BOM_R34_NW BOM_R50_NE BOM_R50_SE BOM_R50_SW BOM_R50_NW BOM_R64_NE BOM_R64_SE BOM_R64_SW BOM_R64_NW BOM_ROCI BOM_POCI BOM_EYE BOM_POS_METHOD BOM_PRES_METHOD NADI_LAT NADI_LON NADI_CAT NADI_WIND NADI_PRES WELLINGTON_LAT WELLINGTON_LON WELLINGTON_WIND WELLINGTON_PRES DS824_LAT DS824_LON DS824_STAGE DS824_WIND DS824_PRES TD9636_LAT TD9636_LON TD9636_STAGE TD9636_WIND TD9636_PRES TD9635_LAT TD9635_LON TD9635_WIND TD9635_PRES TD9635_ROCI NEUMANN_LAT NEUMANN_LON NEUMANN_CLASS NEUMANN_WIND NEUMANN_PRES MLC_LAT MLC_LON MLC_CLASS MLC_WIND MLC_PRES USA_GUST BOM_GUST BOM_GUST_PER REUNION_GUST REUNION_GUST_PER USA_SEAHGT USA_SEARAD_NE USA_SEARAD_SE USA_SEARAD_SW USA_SEARAD_NW STORM_SPEED STORM_DIR
1967241N16324 1967 85 NA NA ARLENE 1967-08-28 18:00:00 TS 15.8000 -35.8000 30 hurdat_atl main 1967 1967 O_____________ hurdat_atl AL111967 15.8000 -35.8000 TD 30 -1 11 302
1967241N16324 1967 85 NA NA ARLENE 1967-08-28 21:00:00 TS 16.0902 -36.2898 main 2021 2021 P_____________ AL111967 16.0902 -36.2898 TD 30 -1 11 302
1967241N16324 1967 85 NA NA ARLENE 1967-08-29 00:00:00 TS 16.4000 -36.8000 30 hurdat_atl main 2076 2065 O_____________ hurdat_atl AL111967 16.4000 -36.8000 TD 30 -1 12 303
1967241N16324 1967 85 NA NA ARLENE 1967-08-29 03:00:00 TS 16.7424 -37.3426 main 2065 2047 P_____________ AL111967 16.7424 -37.3426 TD 30 -1 13 304
1967241N16324 1967 85 NA NA ARLENE 1967-08-29 06:00:00 TS 17.1000 -37.9000 30 hurdat_atl main 2047 2031 O_____________ hurdat_atl AL111967 17.1000 -37.9000 TD 30 -1 13 304
1967241N16324 1967 85 NA NA ARLENE 1967-08-29 09:00:00 TS 17.4498 -38.4428 main 2032 2019 P_____________ AL111967 17.4498 -38.4428 TD 30 -1 13 304
1967241N16324 1967 85 NA NA ARLENE 1967-08-29 12:00:00 TS 17.8000 -39.0000 30 hurdat_atl main 2020 2008 O_____________ hurdat_atl AL111967 17.8000 -39.0000 TD 30 -1 13 303
1967241N16324 1967 85 NA NA ARLENE 1967-08-29 15:00:00 TS 18.1422 -39.5779 main 2002 1994 P_____________ AL111967 18.1422 -39.5779 TD 32 -1 13 302
1967241N16324 1967 85 NA NA ARLENE 1967-08-29 18:00:00 TS 18.5000 -40.2000 35 hurdat_atl main 1996 1984 O_____________ hurdat_atl AL111967 18.5000 -40.2000 TS 35 0 15 301
1967241N16324 1967 85 NA NA ARLENE 1967-08-29 21:00:00 TS 18.8999 -40.8851 main 1987 1976 P_____________ AL111967 18.8999 -40.8851 TS 37 0 16 301
1967241N16324 1967 85 NA NA ARLENE 1967-08-30 00:00:00 TS 19.3000 -41.6000 40 hurdat_atl main 1978 1960 O_____________ hurdat_atl AL111967 19.3000 -41.6000 TS 40 0 15 300
1967241N16324 1967 85 NA NA ARLENE 1967-08-30 03:00:00 TS 19.6648 -42.3077 main 1969 1952 P_____________ AL111967 19.6648 -42.3077 TS 40 0 15 298
1967241N16324 1967 85 NA NA ARLENE 1967-08-30 06:00:00 TS 20.0000 -43.0000 40 hurdat_atl main 1955 1946 O_____________ hurdat_atl AL111967 20.0000 -43.0000 TS 40 0 14 297
1967241N16324 1967 85 NA NA ARLENE 1967-08-30 09:00:00 TS 20.3148 -43.6652 main 1945 1938 P_____________ AL111967 20.3148 -43.6652 TS 42 0 14 296
1967241N16324 1967 85 NA NA ARLENE 1967-08-30 12:00:00 TS 20.6000 -44.3000 45 1001 hurdat_atl main 1943 1933 O_____________ hurdat_atl AL111967 20.6000 -44.3000 TS 45 1001 0 13 295
1967241N16324 1967 85 NA NA ARLENE 1967-08-30 15:00:00 TS 20.8420 -44.8931 main 1933 1930 P_____________ AL111967 20.8420 -44.8931 TS 45 1001 0 12 294
1967241N16324 1967 85 NA NA ARLENE 1967-08-30 18:00:00 TS 21.1000 -45.5000 45 1001 hurdat_atl main 1936 1932 O_____________ hurdat_atl AL111967 21.1000 -45.5000 TS 45 1001 0 13 295
1967241N16324 1967 85 NA NA ARLENE 1967-08-30 21:00:00 TS 21.4124 -46.1854 main 1937 1937 P_____________ AL111967 21.4124 -46.1854 TS 45 0 15 298
1967241N16324 1967 85 NA NA ARLENE 1967-08-31 00:00:00 TS 21.8000 -46.9000 45 hurdat_atl main 1945 1920 O_____________ hurdat_atl AL111967 21.8000 -46.9000 TS 45 0 16 302
1967241N16324 1967 85 NA NA ARLENE 1967-08-31 03:00:00 TS 22.2397 -47.6008 main 1920 1865 P_____________ AL111967 22.2397 -47.6008 TS 42 0 16 308
1967241N16324 1967 85 NA NA ARLENE 1967-08-31 06:00:00 TS 22.8000 -48.3000 40 hurdat_atl main 1865 1813 O_____________ hurdat_atl AL111967 22.8000 -48.3000 TS 40 0 18 314
1967241N16324 1967 85 NA NA ARLENE 1967-08-31 09:00:00 TS 23.5123 -49.0076 main 1813 1771 P_____________ AL111967 23.5123 -49.0076 TS 40 0 20 319
1967241N16324 1967 85 NA NA ARLENE 1967-08-31 12:00:00 TS 24.3000 -49.7000 40 hurdat_atl main 1771 1738 O_____________ hurdat_atl AL111967 24.3000 -49.7000 TS 40 0 20 321
1967241N16324 1967 85 NA NA ARLENE 1967-08-31 15:00:00 TS 25.0648 -50.3729 main 1737 1713 P_____________ AL111967 25.0648 -50.3729 TS 40 0 19 322
1967241N16324 1967 85 NA NA ARLENE 1967-08-31 18:00:00 TS 25.8000 -51.0000 40 1008 hurdat_atl main 1714 1692 O_____________ hurdat_atl AL111967 25.8000 -51.0000 TS 40 1008 0 18 322
1967241N16324 1967 85 NA NA ARLENE 1967-08-31 21:00:00 TS 26.4648 -51.5882 main 1697 1685 P_____________ AL111967 26.4648 -51.5882 TS 40 0 16 323
1967241N16324 1967 85 NA NA ARLENE 1967-09-01 00:00:00 TS 27.1000 -52.1000 40 hurdat_atl main 1689 1686 O_____________ hurdat_atl AL111967 27.1000 -52.1000 TS 40 0 15 327
1967241N16324 1967 85 NA NA ARLENE 1967-09-01 03:00:00 TS 27.7496 -52.5160 main 1693 1692 P_____________ AL111967 27.7496 -52.5160 TS 40 0 15 331
1967241N16324 1967 85 NA NA ARLENE 1967-09-01 06:00:00 TS 28.4000 -52.9000 40 hurdat_atl main 1708 1707 O_____________ hurdat_atl AL111967 28.4000 -52.9000 TS 40 0 15 332
1967241N16324 1967 85 NA NA ARLENE 1967-09-01 09:00:00 TS 29.0646 -53.3132 main 1728 1721 P_____________ AL111967 29.0646 -53.3132 TS 42 0 15 329
1967241N16324 1967 85 NA NA ARLENE 1967-09-01 12:00:00 TS 29.7000 -53.8000 45 1009 hurdat_atl main 1737 1735 O_____________ hurdat_atl AL111967 29.7000 -53.8000 TS 45 1009 0 15 321
1967241N16324 1967 85 NA NA ARLENE 1967-09-01 15:00:00 TS 30.2652 -54.4278 main 1745 1674 P_____________ AL111967 30.2652 -54.4278 TS 47 1008 0 16 314
1967241N16324 1967 85 NA NA ARLENE 1967-09-01 18:00:00 TS 30.8000 -55.1000 50 hurdat_atl main 1674 1597 I_____________ hurdat_atl AL111967 30.8000 -55.1000 TS 50 1008 0 16 313
1967241N16324 1967 85 NA NA ARLENE 1967-09-01 21:00:00 TS 31.3352 -55.7600 main 1593 1511 P_____________ AL111967 31.3352 -55.7600 TS 50 1007 0 15 317
1967241N16324 1967 85 NA NA ARLENE 1967-09-02 00:00:00 TS 31.9000 -56.3000 50 1007 hurdat_atl main 1511 1439 O_____________ hurdat_atl AL111967 31.9000 -56.3000 TS 50 1007 0 14 328
1967241N16324 1967 85 NA NA ARLENE 1967-09-02 03:00:00 TS 32.5271 -56.6331 main 1439 1362 P_____________ AL111967 32.5271 -56.6331 TS 52 1005 0 14 342
1967241N16324 1967 85 NA NA ARLENE 1967-09-02 06:00:00 TS 33.2000 -56.8000 55 hurdat_atl main 1362 1300 I_____________ hurdat_atl AL111967 33.2000 -56.8000 TS 55 1003 0 14 350
1967241N16324 1967 85 NA NA ARLENE 1967-09-02 09:00:00 TS 33.8849 -56.9100 main 1290 1225 P_____________ AL111967 33.8849 -56.9100 TS 57 1001 0 14 357
1967241N16324 1967 85 NA NA ARLENE 1967-09-02 12:00:00 TS 34.6000 -56.9000 60 999 hurdat_atl main 1225 1159 O_____________ hurdat_atl AL111967 34.6000 -56.9000 TS 60 999 0 15 3
1967241N16324 1967 85 NA NA ARLENE 1967-09-02 15:00:00 TS 35.3423 -56.8170 main 1159 1080 P_____________ AL111967 35.3423 -56.8170 TS 62 996 0 15 9
1967241N16324 1967 85 NA NA ARLENE 1967-09-02 18:00:00 TS 36.1000 -56.6000 65 hurdat_atl main 1080 1016 I_____________ hurdat_atl AL111967 36.1000 -56.6000 HU 65 994 1 16 17
1967241N16324 1967 85 NA NA ARLENE 1967-09-02 21:00:00 TS 36.8425 -56.2522 main 1016 952 P_____________ AL111967 36.8425 -56.2522 HU 67 992 1 16 23
1967241N16324 1967 85 NA NA ARLENE 1967-09-03 00:00:00 TS 37.6000 -55.8000 70 990 hurdat_atl main 952 900 O_____________ hurdat_atl AL111967 37.6000 -55.8000 HU 70 990 1 17 26
1967241N16324 1967 85 NA NA ARLENE 1967-09-03 03:00:00 TS 38.3925 -55.3145 main 894 828 P_____________ AL111967 38.3925 -55.3145 HU 70 1 18 26
1967241N16324 1967 85 NA NA ARLENE 1967-09-03 06:00:00 TS 39.2000 -54.8000 70 hurdat_atl main 828 747 O_____________ hurdat_atl AL111967 39.2000 -54.8000 HU 70 1 18 26
1967241N16324 1967 85 NA NA ARLENE 1967-09-03 09:00:00 TS 39.9845 -54.3201 main 735 644 P_____________ AL111967 39.9845 -54.3201 HU 72 1 18 26
1967241N16324 1967 85 NA NA ARLENE 1967-09-03 12:00:00 TS 40.8000 -53.8000 75 hurdat_atl main 644 555 O_____________ hurdat_atl AL111967 40.8000 -53.8000 HU 75 1 19 27
1967241N16324 1967 85 NA NA ARLENE 1967-09-03 15:00:00 TS 41.6773 -53.1860 main 544 458 P_____________ AL111967 41.6773 -53.1860 HU 77 1 20 28
1967241N16324 1967 85 NA NA ARLENE 1967-09-03 18:00:00 TS 42.6000 -52.5000 80 hurdat_atl main 447 359 O_____________ hurdat_atl AL111967 42.6000 -52.5000 HU 80 1 22 28
1967241N16324 1967 85 NA NA ARLENE 1967-09-03 21:00:00 TS 43.6020 -51.7804 main 350 289 P_____________ AL111967 43.6020 -51.7804 HU 80 1 22 30
1967241N16324 1967 85 NA NA ARLENE 1967-09-04 00:00:00 TS 44.5000 -51.0000 80 982 hurdat_atl main 289 273 O_____________ hurdat_atl AL111967 44.5000 -51.0000 HU 80 982 1 19 36
1967241N16324 1967 85 NA NA ARLENE 1967-09-04 03:00:00 TS 45.1617 -50.1786 main 278 278 P_____________ AL111967 45.1617 -50.1786 HU 75 1 16 47
1967241N16324 1967 85 NA NA ARLENE 1967-09-04 06:00:00 TS 45.6000 -49.3000 70 hurdat_atl main 313 313 O_____________ hurdat_atl AL111967 45.6000 -49.3000 HU 70 1 14 61
1967241N16324 1967 85 NA NA ARLENE 1967-09-04 09:00:00 TS 45.8666 -48.3777 main 365 365 P_____________ AL111967 45.8666 -48.3777 HU 65 1 14 73
1967241N16324 1967 85 NA NA ARLENE 1967-09-04 12:00:00 ET 46.0000 -47.4000 60 hurdat_atl main 428 428 O_____________ hurdat_atl AL111967 46.0000 -47.4000 EX 60 -4 14 80
1967241N16324 1967 85 NA NA ARLENE 1967-09-04 15:00:00 ET 46.1219 -46.3643 main 494 494 P_____________ AL111967 46.1219 -46.3643 EX 55 -4 15 82
1967241N16324 1967 85 NA NA ARLENE 1967-09-04 18:00:00 ET 46.2000 -45.3000 50 hurdat_atl main 571 571 O_____________ hurdat_atl AL111967 46.2000 -45.3000 EX 50 -4 15 85
1967241N16324 1967 85 NA NA ARLENE 1967-09-04 21:00:00 ET 46.2648 -44.2199 main 648 648 P_____________ AL111967 46.2648 -44.2199 EX 47 -4 15 86
1967241N16324 1967 85 NA NA ARLENE 1967-09-05 00:00:00 ET 46.3000 -43.2000 45 hurdat_atl main 723 723 O_____________ hurdat_atl AL111967 46.3000 -43.2000 EX 45 -4 13 89
1967241N16324 1967 85 NA NA ARLENE 1967-09-05 03:00:00 ET 46.2915 -42.3040 main 789 789 P_____________ AL111967 46.2915 -42.3040 EX 42 -4 12 90
1967241N16324 1967 85 NA NA ARLENE 1967-09-05 06:00:00 ET 46.3000 -41.5000 40 hurdat_atl main 849 849 O_____________ hurdat_atl AL111967 46.3000 -41.5000 EX 40 -4 11 86
1967241N16324 1967 85 NA NA ARLENE 1967-09-05 09:00:00 ET 46.3624 -40.6974 main 906 906 P_____________ AL111967 46.3624 -40.6974 EX 37 -4 11 79
1967241N16324 1967 85 NA NA ARLENE 1967-09-05 12:00:00 ET 46.5000 -40.0000 35 hurdat_atl main 956 956 O_____________ hurdat_atl AL111967 46.5000 -40.0000 EX 35 -4 9 67
1967241N16324 1967 85 NA NA ARLENE 1967-09-05 15:00:00 ET 46.7251 -39.4559 main 990 990 P_____________ AL111967 46.7251 -39.4559 EX 32 -4 8 54
1967241N16324 1967 85 NA NA ARLENE 1967-09-05 18:00:00 ET 47.0000 -39.0000 30 hurdat_atl main 1022 O_____________ hurdat_atl AL111967 47.0000 -39.0000 EX 30 -4 8 49

About IBTrACS Database

This database is a web-friendly format of International Best Track Archive for Climate Stewardship (IBTrACS), a global best track data archive curated by NOAA dating back to 1842.

Updated: 2022-10-05